sensor_id;sensor_type;location;lat;lon;timestamp;temperature;humidity
19152;DHT22;9708;53.114;9.388;2023-05-20T00:01:38;12.60;99.90
19152;DHT22;9708;53.114;9.388;2023-05-20T00:04:05;12.40;99.90
19152;DHT22;9708;53.114;9.388;2023-05-20T00:06:32;12.30;99.90
19152;DHT22;9708;53.114;9.388;2023-05-20T00:08:59;12.40;99.90
19152;DHT22;9708;53.114;9.388;2023-05-20T00:11:27;12.30;99.90
19152;DHT22;9708;53.114;9.388;2023-05-20T00:13:54;12.20;99.90
19152;DHT22;9708;53.114;9.388;2023-05-20T00:16:20;12.20;99.90
19152;DHT22;9708;53.114;9.388;2023-05-20T00:18:47;12.10;99.90
19152;DHT22;9708;53.114;9.388;2023-05-20T00:21:14;12.00;99.90
19152;DHT22;9708;53.114;9.388;2023-05-20T00:23:41;11.90;99.90
19152;DHT22;9708;53.114;9.388;2023-05-20T00:26:07;11.90;99.90
19152;DHT22;9708;53.114;9.388;2023-05-20T00:28:36;11.90;99.90
19152;DHT22;9708;53.114;9.388;2023-05-20T00:31:03;11.90;99.90
19152;DHT22;9708;53.114;9.388;2023-05-20T00:33:30;11.80;99.90
19152;DHT22;9708;53.114;9.388;2023-05-20T00:35:57;11.80;99.90
19152;DHT22;9708;53.114;9.388;2023-05-20T00:38:23;11.80;99.90
19152;DHT22;9708;53.114;9.388;2023-05-20T00:40:50;11.70;99.90
19152;DHT22;9708;53.114;9.388;2023-05-20T00:43:17;11.70;99.90
19152;DHT22;9708;53.114;9.388;2023-05-20T00:45:46;11.70;99.90
19152;DHT22;9708;53.114;9.388;2023-05-20T00:48:13;11.60;99.90
19152;DHT22;9708;53.114;9.388;2023-05-20T00:50:40;11.70;99.90
19152;DHT22;9708;53.114;9.388;2023-05-20T00:53:07;11.70;99.90
19152;DHT22;9708;53.114;9.388;2023-05-20T00:55:34;11.70;99.90
19152;DHT22;9708;53.114;9.388;2023-05-20T00:58:01;11.70;99.90
19152;DHT22;9708;53.114;9.388;2023-05-20T01:00:28;11.60;99.90
19152;DHT22;9708;53.114;9.388;2023-05-20T01:02:56;11.50;99.90
19152;DHT22;9708;53.114;9.388;2023-05-20T01:05:23;11.50;99.90
19152;DHT22;9708;53.114;9.388;2023-05-20T01:07:49;11.50;99.90
19152;DHT22;9708;53.114;9.388;2023-05-20T01:10:16;11.50;99.90
19152;DHT22;9708;53.114;9.388;2023-05-20T01:12:47;11.40;99.90
19152;DHT22;9708;53.114;9.388;2023-05-20T01:15:15;11.40;99.90
19152;DHT22;9708;53.114;9.388;2023-05-20T01:17:45;11.40;99.90
19152;DHT22;9708;53.114;9.388;2023-05-20T01:20:14;11.40;99.90
19152;DHT22;9708;53.114;9.388;2023-05-20T01:22:48;11.30;99.90
19152;DHT22;9708;53.114;9.388;2023-05-20T01:25:15;11.30;99.90
19152;DHT22;9708;53.114;9.388;2023-05-20T01:27:41;11.20;99.90
19152;DHT22;9708;53.114;9.388;2023-05-20T01:30:09;11.10;99.90
19152;DHT22;9708;53.114;9.388;2023-05-20T01:32:38;11.00;99.90
19152;DHT22;9708;53.114;9.388;2023-05-20T01:35:06;11.00;99.90
19152;DHT22;9708;53.114;9.388;2023-05-20T01:37:34;11.00;99.90
19152;DHT22;9708;53.114;9.388;2023-05-20T01:40:04;11.00;99.90
19152;DHT22;9708;53.114;9.388;2023-05-20T01:42:33;10.90;99.90
19152;DHT22;9708;53.114;9.388;2023-05-20T01:45:00;10.80;99.90
19152;DHT22;9708;53.114;9.388;2023-05-20T01:47:27;10.80;99.90
19152;DHT22;9708;53.114;9.388;2023-05-20T01:49:54;10.80;99.90
19152;DHT22;9708;53.114;9.388;2023-05-20T01:52:22;10.70;99.90
19152;DHT22;9708;53.114;9.388;2023-05-20T01:54:49;10.70;99.90
19152;DHT22;9708;53.114;9.388;2023-05-20T01:57:17;10.70;99.90
19152;DHT22;9708;53.114;9.388;2023-05-20T01:59:44;10.60;99.90
19152;DHT22;9708;53.114;9.388;2023-05-20T02:02:12;10.50;99.90
19152;DHT22;9708;53.114;9.388;2023-05-20T02:04:39;10.60;99.90
19152;DHT22;9708;53.114;9.388;2023-05-20T02:07:06;10.50;99.90
19152;DHT22;9708;53.114;9.388;2023-05-20T02:09:33;10.50;99.90
19152;DHT22;9708;53.114;9.388;2023-05-20T02:12:00;10.40;99.90
19152;DHT22;9708;53.114;9.388;2023-05-20T02:14:28;10.30;99.90
19152;DHT22;9708;53.114;9.388;2023-05-20T02:16:55;10.40;99.90
19152;DHT22;9708;53.114;9.388;2023-05-20T02:19:21;10.20;99.90
19152;DHT22;9708;53.114;9.388;2023-05-20T02:21:49;10.20;99.90
19152;DHT22;9708;53.114;9.388;2023-05-20T02:24:16;10.10;99.90
19152;DHT22;9708;53.114;9.388;2023-05-20T02:26:44;10.00;99.90
19152;DHT22;9708;53.114;9.388;2023-05-20T02:29:11;9.90;99.90
19152;DHT22;9708;53.114;9.388;2023-05-20T02:31:39;9.90;99.90
19152;DHT22;9708;53.114;9.388;2023-05-20T02:34:06;9.80;99.90
19152;DHT22;9708;53.114;9.388;2023-05-20T02:36:33;9.70;99.90
19152;DHT22;9708;53.114;9.388;2023-05-20T02:39:00;9.70;99.90
19152;DHT22;9708;53.114;9.388;2023-05-20T02:41:27;9.60;99.90
19152;DHT22;9708;53.114;9.388;2023-05-20T02:43:54;9.60;99.90
19152;DHT22;9708;53.114;9.388;2023-05-20T02:46:21;9.50;99.90
19152;DHT22;9708;53.114;9.388;2023-05-20T02:48:49;9.50;99.90
19152;DHT22;9708;53.114;9.388;2023-05-20T02:51:15;9.40;99.90
19152;DHT22;9708;53.114;9.388;2023-05-20T02:53:42;9.40;99.90
19152;DHT22;9708;53.114;9.388;2023-05-20T02:56:09;9.40;99.90
19152;DHT22;9708;53.114;9.388;2023-05-20T02:58:36;9.40;99.90
19152;DHT22;9708;53.114;9.388;2023-05-20T03:01:03;9.30;99.90
19152;DHT22;9708;53.114;9.388;2023-05-20T03:03:29;9.30;99.90
19152;DHT22;9708;53.114;9.388;2023-05-20T03:05:58;9.20;99.90
19152;DHT22;9708;53.114;9.388;2023-05-20T03:08:24;9.30;99.90
19152;DHT22;9708;53.114;9.388;2023-05-20T03:10:51;9.20;99.90
19152;DHT22;9708;53.114;9.388;2023-05-20T03:13:18;9.20;99.90
19152;DHT22;9708;53.114;9.388;2023-05-20T03:15:45;9.10;99.90
19152;DHT22;9708;53.114;9.388;2023-05-20T03:18:11;9.10;99.90
19152;DHT22;9708;53.114;9.388;2023-05-20T03:20:39;9.10;99.90
19152;DHT22;9708;53.114;9.388;2023-05-20T03:23:07;9.20;99.90
19152;DHT22;9708;53.114;9.388;2023-05-20T03:25:35;9.20;99.90
19152;DHT22;9708;53.114;9.388;2023-05-20T03:28:01;9.20;99.90
19152;DHT22;9708;53.114;9.388;2023-05-20T03:30:28;9.20;99.90
19152;DHT22;9708;53.114;9.388;2023-05-20T03:32:55;9.20;99.90
19152;DHT22;9708;53.114;9.388;2023-05-20T03:35:23;9.20;99.90
19152;DHT22;9708;53.114;9.388;2023-05-20T03:37:50;9.30;99.90
19152;DHT22;9708;53.114;9.388;2023-05-20T03:40:19;9.30;99.90
19152;DHT22;9708;53.114;9.388;2023-05-20T03:42:46;9.30;99.90
19152;DHT22;9708;53.114;9.388;2023-05-20T03:45:14;9.30;99.90
19152;DHT22;9708;53.114;9.388;2023-05-20T03:47:41;9.30;99.90
19152;DHT22;9708;53.114;9.388;2023-05-20T03:50:08;9.40;99.90
19152;DHT22;9708;53.114;9.388;2023-05-20T03:52:35;9.40;99.90
19152;DHT22;9708;53.114;9.388;2023-05-20T03:55:03;9.40;99.90
19152;DHT22;9708;53.114;9.388;2023-05-20T03:57:31;9.50;99.90
19152;DHT22;9708;53.114;9.388;2023-05-20T03:59:58;9.50;99.90
19152;DHT22;9708;53.114;9.388;2023-05-20T04:02:26;9.50;99.90
19152;DHT22;9708;53.114;9.388;2023-05-20T04:04:53;9.50;99.90
19152;DHT22;9708;53.114;9.388;2023-05-20T04:07:22;9.60;99.90
19152;DHT22;9708;53.114;9.388;2023-05-20T04:09:49;9.60;99.90
19152;DHT22;9708;53.114;9.388;2023-05-20T04:12:16;9.60;99.90
19152;DHT22;9708;53.114;9.388;2023-05-20T04:14:46;9.70;99.90
19152;DHT22;9708;53.114;9.388;2023-05-20T04:17:14;9.70;99.90
19152;DHT22;9708;53.114;9.388;2023-05-20T04:19:41;9.70;99.90
19152;DHT22;9708;53.114;9.388;2023-05-20T04:22:09;9.70;99.90
19152;DHT22;9708;53.114;9.388;2023-05-20T04:24:36;9.80;99.90
19152;DHT22;9708;53.114;9.388;2023-05-20T04:27:03;9.90;99.90
19152;DHT22;9708;53.114;9.388;2023-05-20T04:29:31;10.00;99.90
19152;DHT22;9708;53.114;9.388;2023-05-20T04:32:00;10.10;99.90
19152;DHT22;9708;53.114;9.388;2023-05-20T04:34:28;10.20;99.90
19152;DHT22;9708;53.114;9.388;2023-05-20T04:36:59;10.20;99.90
19152;DHT22;9708;53.114;9.388;2023-05-20T04:39:26;10.30;99.90
19152;DHT22;9708;53.114;9.388;2023-05-20T04:41:53;10.40;99.90
19152;DHT22;9708;53.114;9.388;2023-05-20T04:44:20;10.60;99.90
19152;DHT22;9708;53.114;9.388;2023-05-20T04:46:47;10.60;99.90
19152;DHT22;9708;53.114;9.388;2023-05-20T04:49:15;10.70;99.90
19152;DHT22;9708;53.114;9.388;2023-05-20T04:51:42;10.80;99.90
19152;DHT22;9708;53.114;9.388;2023-05-20T04:54:09;10.90;99.90
19152;DHT22;9708;53.114;9.388;2023-05-20T04:56:36;11.10;99.90
19152;DHT22;9708;53.114;9.388;2023-05-20T04:59:02;11.30;99.90
19152;DHT22;9708;53.114;9.388;2023-05-20T05:01:29;11.60;99.90
19152;DHT22;9708;53.114;9.388;2023-05-20T05:03:56;12.30;99.90
19152;DHT22;9708;53.114;9.388;2023-05-20T05:06:24;12.70;99.90
19152;DHT22;9708;53.114;9.388;2023-05-20T05:08:51;13.20;99.90
19152;DHT22;9708;53.114;9.388;2023-05-20T05:11:17;13.70;99.90
19152;DHT22;9708;53.114;9.388;2023-05-20T05:13:44;14.10;99.90
19152;DHT22;9708;53.114;9.388;2023-05-20T05:16:11;14.30;99.90
19152;DHT22;9708;53.114;9.388;2023-05-20T05:18:38;14.80;99.90
19152;DHT22;9708;53.114;9.388;2023-05-20T05:21:05;15.10;99.90
19152;DHT22;9708;53.114;9.388;2023-05-20T05:23:33;15.70;99.90
19152;DHT22;9708;53.114;9.388;2023-05-20T05:26:00;16.00;99.90
19152;DHT22;9708;53.114;9.388;2023-05-20T05:28:27;16.40;99.90
19152;DHT22;9708;53.114;9.388;2023-05-20T05:30:54;16.50;99.90
19152;DHT22;9708;53.114;9.388;2023-05-20T05:33:21;17.10;99.90
19152;DHT22;9708;53.114;9.388;2023-05-20T05:35:49;17.90;99.90
19152;DHT22;9708;53.114;9.388;2023-05-20T05:38:16;17.70;99.90
19152;DHT22;9708;53.114;9.388;2023-05-20T05:40:44;18.30;99.90
19152;DHT22;9708;53.114;9.388;2023-05-20T05:43:11;18.00;99.90
19152;DHT22;9708;53.114;9.388;2023-05-20T05:45:38;18.30;99.90
19152;DHT22;9708;53.114;9.388;2023-05-20T05:48:05;18.50;99.90
19152;DHT22;9708;53.114;9.388;2023-05-20T05:50:31;18.50;99.90
19152;DHT22;9708;53.114;9.388;2023-05-20T05:52:58;18.70;99.90
19152;DHT22;9708;53.114;9.388;2023-05-20T05:55:25;18.70;99.90
19152;DHT22;9708;53.114;9.388;2023-05-20T05:57:53;18.60;99.90
19152;DHT22;9708;53.114;9.388;2023-05-20T06:00:20;17.80;99.90
19152;DHT22;9708;53.114;9.388;2023-05-20T06:02:47;18.00;99.90
19152;DHT22;9708;53.114;9.388;2023-05-20T06:05:13;18.90;99.90
19152;DHT22;9708;53.114;9.388;2023-05-20T06:07:40;19.00;99.90
19152;DHT22;9708;53.114;9.388;2023-05-20T06:10:08;19.60;99.90
19152;DHT22;9708;53.114;9.388;2023-05-20T06:12:35;20.10;99.90
19152;DHT22;9708;53.114;9.388;2023-05-20T06:15:04;19.80;99.90
19152;DHT22;9708;53.114;9.388;2023-05-20T06:17:31;19.80;99.90
19152;DHT22;9708;53.114;9.388;2023-05-20T06:19:58;19.40;99.90
19152;DHT22;9708;53.114;9.388;2023-05-20T06:22:25;20.50;99.90
19152;DHT22;9708;53.114;9.388;2023-05-20T06:24:52;20.80;99.90
19152;DHT22;9708;53.114;9.388;2023-05-20T06:27:20;21.20;99.90
19152;DHT22;9708;53.114;9.388;2023-05-20T06:29:47;21.10;99.90
19152;DHT22;9708;53.114;9.388;2023-05-20T06:32:15;21.50;99.90
19152;DHT22;9708;53.114;9.388;2023-05-20T06:34:42;22.00;99.90
19152;DHT22;9708;53.114;9.388;2023-05-20T06:37:09;22.40;99.90
19152;DHT22;9708;53.114;9.388;2023-05-20T06:39:36;23.00;99.90
19152;DHT22;9708;53.114;9.388;2023-05-20T06:42:04;21.90;99.90
19152;DHT22;9708;53.114;9.388;2023-05-20T06:44:30;22.40;99.90
19152;DHT22;9708;53.114;9.388;2023-05-20T06:46:57;22.00;99.90
19152;DHT22;9708;53.114;9.388;2023-05-20T06:49:25;22.10;99.90
19152;DHT22;9708;53.114;9.388;2023-05-20T06:51:53;22.20;99.90
19152;DHT22;9708;53.114;9.388;2023-05-20T06:54:19;22.60;99.90
19152;DHT22;9708;53.114;9.388;2023-05-20T06:56:46;23.20;99.90
19152;DHT22;9708;53.114;9.388;2023-05-20T06:59:13;22.90;99.90
19152;DHT22;9708;53.114;9.388;2023-05-20T07:01:40;22.70;99.90
19152;DHT22;9708;53.114;9.388;2023-05-20T07:04:07;22.30;99.90
19152;DHT22;9708;53.114;9.388;2023-05-20T07:06:35;22.70;99.90
19152;DHT22;9708;53.114;9.388;2023-05-20T07:09:01;22.60;99.90
19152;DHT22;9708;53.114;9.388;2023-05-20T07:11:29;22.60;99.90
19152;DHT22;9708;53.114;9.388;2023-05-20T07:13:56;21.90;99.90
19152;DHT22;9708;53.114;9.388;2023-05-20T07:16:23;20.80;99.90
19152;DHT22;9708;53.114;9.388;2023-05-20T07:18:50;21.00;99.90
19152;DHT22;9708;53.114;9.388;2023-05-20T07:21:16;21.40;99.90
19152;DHT22;9708;53.114;9.388;2023-05-20T07:23:45;22.20;99.90
19152;DHT22;9708;53.114;9.388;2023-05-20T07:26:11;22.10;99.90
19152;DHT22;9708;53.114;9.388;2023-05-20T07:28:38;21.40;99.90
19152;DHT22;9708;53.114;9.388;2023-05-20T07:31:05;21.40;99.90
19152;DHT22;9708;53.114;9.388;2023-05-20T07:33:32;21.80;99.90
19152;DHT22;9708;53.114;9.388;2023-05-20T07:35:58;21.30;99.90
19152;DHT22;9708;53.114;9.388;2023-05-20T07:38:25;21.30;99.90
19152;DHT22;9708;53.114;9.388;2023-05-20T07:40:53;21.60;99.90
19152;DHT22;9708;53.114;9.388;2023-05-20T07:43:20;21.90;99.90
19152;DHT22;9708;53.114;9.388;2023-05-20T07:45:47;22.10;99.90
19152;DHT22;9708;53.114;9.388;2023-05-20T07:48:14;21.80;99.90
19152;DHT22;9708;53.114;9.388;2023-05-20T07:50:40;22.20;99.90
19152;DHT22;9708;53.114;9.388;2023-05-20T07:53:07;22.50;99.90
19152;DHT22;9708;53.114;9.388;2023-05-20T07:55:34;21.70;99.90
19152;DHT22;9708;53.114;9.388;2023-05-20T07:58:03;22.00;99.90
19152;DHT22;9708;53.114;9.388;2023-05-20T08:00:30;22.10;99.90
19152;DHT22;9708;53.114;9.388;2023-05-20T08:02:57;21.70;99.90
19152;DHT22;9708;53.114;9.388;2023-05-20T08:05:23;21.60;99.90
19152;DHT22;9708;53.114;9.388;2023-05-20T08:07:51;21.70;99.90
19152;DHT22;9708;53.114;9.388;2023-05-20T08:10:17;21.80;99.90
19152;DHT22;9708;53.114;9.388;2023-05-20T08:12:45;22.20;99.90
19152;DHT22;9708;53.114;9.388;2023-05-20T08:15:13;22.20;99.90
19152;DHT22;9708;53.114;9.388;2023-05-20T08:17:40;22.10;99.90
19152;DHT22;9708;53.114;9.388;2023-05-20T08:20:07;21.90;99.90
19152;DHT22;9708;53.114;9.388;2023-05-20T08:22:37;21.30;99.90
19152;DHT22;9708;53.114;9.388;2023-05-20T08:25:07;21.40;99.90
19152;DHT22;9708;53.114;9.388;2023-05-20T08:27:35;21.80;99.90
19152;DHT22;9708;53.114;9.388;2023-05-20T08:30:02;21.80;99.90
19152;DHT22;9708;53.114;9.388;2023-05-20T08:32:31;22.00;99.90
19152;DHT22;9708;53.114;9.388;2023-05-20T08:34:57;21.40;99.90
19152;DHT22;9708;53.114;9.388;2023-05-20T08:37:26;21.60;99.90
19152;DHT22;9708;53.114;9.388;2023-05-20T08:39:53;21.60;99.90
19152;DHT22;9708;53.114;9.388;2023-05-20T08:42:21;21.80;99.90
19152;DHT22;9708;53.114;9.388;2023-05-20T08:44:49;21.70;99.90
19152;DHT22;9708;53.114;9.388;2023-05-20T08:47:17;21.90;99.90
19152;DHT22;9708;53.114;9.388;2023-05-20T08:49:46;22.00;99.90
19152;DHT22;9708;53.114;9.388;2023-05-20T08:52:13;21.80;99.90
19152;DHT22;9708;53.114;9.388;2023-05-20T08:54:43;22.00;99.90
19152;DHT22;9708;53.114;9.388;2023-05-20T08:57:11;22.10;99.90
19152;DHT22;9708;53.114;9.388;2023-05-20T08:59:40;22.00;99.90
19152;DHT22;9708;53.114;9.388;2023-05-20T09:02:08;22.20;99.90
19152;DHT22;9708;53.114;9.388;2023-05-20T09:04:35;22.30;99.90
19152;DHT22;9708;53.114;9.388;2023-05-20T09:07:03;22.40;99.90
19152;DHT22;9708;53.114;9.388;2023-05-20T09:09:32;21.50;99.90
19152;DHT22;9708;53.114;9.388;2023-05-20T09:11:59;21.40;99.90
19152;DHT22;9708;53.114;9.388;2023-05-20T09:14:27;21.70;99.90
19152;DHT22;9708;53.114;9.388;2023-05-20T09:16:54;22.10;99.90
19152;DHT22;9708;53.114;9.388;2023-05-20T09:19:21;21.60;99.90
19152;DHT22;9708;53.114;9.388;2023-05-20T09:21:51;21.90;99.90
19152;DHT22;9708;53.114;9.388;2023-05-20T09:24:22;22.00;99.90
19152;DHT22;9708;53.114;9.388;2023-05-20T09:26:50;22.00;99.90
19152;DHT22;9708;53.114;9.388;2023-05-20T09:29:16;22.30;99.90
19152;DHT22;9708;53.114;9.388;2023-05-20T09:31:44;22.60;99.90
19152;DHT22;9708;53.114;9.388;2023-05-20T09:34:11;22.00;99.90
19152;DHT22;9708;53.114;9.388;2023-05-20T09:36:39;21.50;99.90
19152;DHT22;9708;53.114;9.388;2023-05-20T09:39:11;21.80;99.90
19152;DHT22;9708;53.114;9.388;2023-05-20T09:41:48;22.00;99.90
19152;DHT22;9708;53.114;9.388;2023-05-20T09:44:20;21.70;99.90
19152;DHT22;9708;53.114;9.388;2023-05-20T09:46:48;21.40;99.90
19152;DHT22;9708;53.114;9.388;2023-05-20T09:49:18;21.00;99.90
19152;DHT22;9708;53.114;9.388;2023-05-20T09:51:47;20.40;99.90
19152;DHT22;9708;53.114;9.388;2023-05-20T09:54:14;20.60;99.90
19152;DHT22;9708;53.114;9.388;2023-05-20T09:56:45;21.50;99.90
19152;DHT22;9708;53.114;9.388;2023-05-20T09:59:14;21.90;99.90
19152;DHT22;9708;53.114;9.388;2023-05-20T10:01:42;22.20;99.90
19152;DHT22;9708;53.114;9.388;2023-05-20T10:04:09;22.10;99.90
19152;DHT22;9708;53.114;9.388;2023-05-20T10:06:49;21.00;99.90
19152;DHT22;9708;53.114;9.388;2023-05-20T10:09:31;21.00;99.90
19152;DHT22;9708;53.114;9.388;2023-05-20T10:12:11;20.90;99.90
19152;DHT22;9708;53.114;9.388;2023-05-20T10:14:51;21.30;99.90
19152;DHT22;9708;53.114;9.388;2023-05-20T10:17:27;21.10;99.90
19152;DHT22;9708;53.114;9.388;2023-05-20T10:19:58;20.50;99.90
19152;DHT22;9708;53.114;9.388;2023-05-20T10:22:27;20.00;99.90
19152;DHT22;9708;53.114;9.388;2023-05-20T10:24:58;20.10;99.90
19152;DHT22;9708;53.114;9.388;2023-05-20T10:27:26;19.80;99.90
19152;DHT22;9708;53.114;9.388;2023-05-20T10:29:54;19.60;99.90
19152;DHT22;9708;53.114;9.388;2023-05-20T10:32:25;19.60;99.90
19152;DHT22;9708;53.114;9.388;2023-05-20T10:34:57;19.50;99.90
19152;DHT22;9708;53.114;9.388;2023-05-20T10:37:26;19.10;99.90
19152;DHT22;9708;53.114;9.388;2023-05-20T10:40:04;19.20;99.90
19152;DHT22;9708;53.114;9.388;2023-05-20T10:42:32;18.60;99.90
19152;DHT22;9708;53.114;9.388;2023-05-20T10:44:59;18.40;99.90
19152;DHT22;9708;53.114;9.388;2023-05-20T10:47:26;18.10;99.90
19152;DHT22;9708;53.114;9.388;2023-05-20T10:49:53;18.10;99.90
19152;DHT22;9708;53.114;9.388;2023-05-20T10:52:20;18.00;99.90
19152;DHT22;9708;53.114;9.388;2023-05-20T10:54:53;18.00;99.90
19152;DHT22;9708;53.114;9.388;2023-05-20T10:57:20;18.10;99.90
19152;DHT22;9708;53.114;9.388;2023-05-20T10:59:49;18.20;99.90
19152;DHT22;9708;53.114;9.388;2023-05-20T11:02:17;18.20;99.90
19152;DHT22;9708;53.114;9.388;2023-05-20T11:04:44;18.30;99.90
19152;DHT22;9708;53.114;9.388;2023-05-20T11:07:11;18.40;99.90
19152;DHT22;9708;53.114;9.388;2023-05-20T11:09:38;18.50;99.90
19152;DHT22;9708;53.114;9.388;2023-05-20T11:12:05;18.60;99.90
19152;DHT22;9708;53.114;9.388;2023-05-20T11:14:32;18.60;99.90
19152;DHT22;9708;53.114;9.388;2023-05-20T11:17:01;18.50;99.90
19152;DHT22;9708;53.114;9.388;2023-05-20T11:19:29;18.60;99.90
19152;DHT22;9708;53.114;9.388;2023-05-20T11:21:55;18.60;99.90
19152;DHT22;9708;53.114;9.388;2023-05-20T11:24:23;18.60;99.90
19152;DHT22;9708;53.114;9.388;2023-05-20T11:26:52;18.60;99.90
19152;DHT22;9708;53.114;9.388;2023-05-20T11:29:19;18.60;99.90
19152;DHT22;9708;53.114;9.388;2023-05-20T11:31:47;18.80;99.90
19152;DHT22;9708;53.114;9.388;2023-05-20T11:34:18;18.60;99.90
19152;DHT22;9708;53.114;9.388;2023-05-20T11:36:45;18.40;99.90
19152;DHT22;9708;53.114;9.388;2023-05-20T11:39:13;18.40;99.90
19152;DHT22;9708;53.114;9.388;2023-05-20T11:41:41;18.40;99.90
19152;DHT22;9708;53.114;9.388;2023-05-20T11:44:09;18.10;99.90
19152;DHT22;9708;53.114;9.388;2023-05-20T11:46:41;18.00;99.90
19152;DHT22;9708;53.114;9.388;2023-05-20T11:49:08;18.00;99.90
19152;DHT22;9708;53.114;9.388;2023-05-20T11:51:37;18.10;99.90
19152;DHT22;9708;53.114;9.388;2023-05-20T11:54:05;18.10;99.90
19152;DHT22;9708;53.114;9.388;2023-05-20T11:56:33;18.00;99.90
19152;DHT22;9708;53.114;9.388;2023-05-20T11:59:01;17.90;99.90
19152;DHT22;9708;53.114;9.388;2023-05-20T12:01:29;17.80;99.90
19152;DHT22;9708;53.114;9.388;2023-05-20T12:03:58;17.80;99.90
19152;DHT22;9708;53.114;9.388;2023-05-20T12:06:25;17.80;99.90
19152;DHT22;9708;53.114;9.388;2023-05-20T12:08:53;17.80;99.90
19152;DHT22;9708;53.114;9.388;2023-05-20T12:11:19;17.60;99.90
19152;DHT22;9708;53.114;9.388;2023-05-20T12:13:47;17.80;99.90
19152;DHT22;9708;53.114;9.388;2023-05-20T12:16:14;17.90;99.90
19152;DHT22;9708;53.114;9.388;2023-05-20T12:18:40;18.20;99.90
19152;DHT22;9708;53.114;9.388;2023-05-20T12:21:07;18.30;99.90
19152;DHT22;9708;53.114;9.388;2023-05-20T12:23:34;18.40;99.90
19152;DHT22;9708;53.114;9.388;2023-05-20T12:26:02;18.50;99.90
19152;DHT22;9708;53.114;9.388;2023-05-20T12:28:30;18.60;99.90
19152;DHT22;9708;53.114;9.388;2023-05-20T12:30:57;18.50;99.90
19152;DHT22;9708;53.114;9.388;2023-05-20T12:33:24;18.40;99.90
19152;DHT22;9708;53.114;9.388;2023-05-20T12:35:52;18.30;99.90
19152;DHT22;9708;53.114;9.388;2023-05-20T12:38:19;18.20;99.90
19152;DHT22;9708;53.114;9.388;2023-05-20T12:40:45;18.20;99.90
19152;DHT22;9708;53.114;9.388;2023-05-20T12:43:13;18.20;99.90
19152;DHT22;9708;53.114;9.388;2023-05-20T12:45:40;18.10;99.90
19152;DHT22;9708;53.114;9.388;2023-05-20T12:48:07;18.30;99.90
19152;DHT22;9708;53.114;9.388;2023-05-20T12:50:34;18.40;99.90
19152;DHT22;9708;53.114;9.388;2023-05-20T12:53:00;18.40;99.90
19152;DHT22;9708;53.114;9.388;2023-05-20T12:55:27;18.70;99.90
19152;DHT22;9708;53.114;9.388;2023-05-20T12:57:54;18.70;99.90
19152;DHT22;9708;53.114;9.388;2023-05-20T13:00:22;18.80;99.90
19152;DHT22;9708;53.114;9.388;2023-05-20T13:02:49;19.00;99.90
19152;DHT22;9708;53.114;9.388;2023-05-20T13:05:16;19.20;99.90
19152;DHT22;9708;53.114;9.388;2023-05-20T13:07:43;19.70;99.90
19152;DHT22;9708;53.114;9.388;2023-05-20T13:10:10;19.70;99.90
19152;DHT22;9708;53.114;9.388;2023-05-20T13:12:37;19.90;99.90
19152;DHT22;9708;53.114;9.388;2023-05-20T13:15:06;19.90;99.90
19152;DHT22;9708;53.114;9.388;2023-05-20T13:17:34;19.80;99.90
19152;DHT22;9708;53.114;9.388;2023-05-20T13:20:01;19.70;99.90
19152;DHT22;9708;53.114;9.388;2023-05-20T13:22:28;19.70;99.90
19152;DHT22;9708;53.114;9.388;2023-05-20T13:24:54;19.70;99.90
19152;DHT22;9708;53.114;9.388;2023-05-20T13:27:21;19.40;99.90
19152;DHT22;9708;53.114;9.388;2023-05-20T13:29:48;20.10;99.90
19152;DHT22;9708;53.114;9.388;2023-05-20T13:32:17;19.40;99.90
19152;DHT22;9708;53.114;9.388;2023-05-20T13:34:45;19.30;99.90
19152;DHT22;9708;53.114;9.388;2023-05-20T13:37:12;19.00;99.90
19152;DHT22;9708;53.114;9.388;2023-05-20T13:39:38;19.10;99.90
19152;DHT22;9708;53.114;9.388;2023-05-20T13:42:05;20.00;99.90
19152;DHT22;9708;53.114;9.388;2023-05-20T13:44:32;20.10;99.90
19152;DHT22;9708;53.114;9.388;2023-05-20T13:46:59;20.90;99.90
19152;DHT22;9708;53.114;9.388;2023-05-20T13:49:25;21.10;99.90
19152;DHT22;9708;53.114;9.388;2023-05-20T13:51:54;20.90;99.90
19152;DHT22;9708;53.114;9.388;2023-05-20T13:54:20;20.90;99.90
19152;DHT22;9708;53.114;9.388;2023-05-20T13:56:47;20.50;99.90
19152;DHT22;9708;53.114;9.388;2023-05-20T13:59:14;20.40;99.90
19152;DHT22;9708;53.114;9.388;2023-05-20T14:01:41;20.00;99.90
19152;DHT22;9708;53.114;9.388;2023-05-20T14:04:09;19.90;99.90
19152;DHT22;9708;53.114;9.388;2023-05-20T14:06:36;19.80;99.90
19152;DHT22;9708;53.114;9.388;2023-05-20T14:09:05;19.80;99.90
19152;DHT22;9708;53.114;9.388;2023-05-20T14:11:32;19.40;99.90
19152;DHT22;9708;53.114;9.388;2023-05-20T14:13:59;19.20;99.90
19152;DHT22;9708;53.114;9.388;2023-05-20T14:16:26;19.50;99.90
19152;DHT22;9708;53.114;9.388;2023-05-20T14:18:53;19.70;99.90
19152;DHT22;9708;53.114;9.388;2023-05-20T14:21:19;19.60;99.90
19152;DHT22;9708;53.114;9.388;2023-05-20T14:23:46;19.50;99.90
19152;DHT22;9708;53.114;9.388;2023-05-20T14:26:15;19.20;99.90
19152;DHT22;9708;53.114;9.388;2023-05-20T14:28:42;19.30;99.90
19152;DHT22;9708;53.114;9.388;2023-05-20T14:31:08;19.10;99.90
19152;DHT22;9708;53.114;9.388;2023-05-20T14:33:36;19.00;99.90
19152;DHT22;9708;53.114;9.388;2023-05-20T14:36:03;19.00;99.90
19152;DHT22;9708;53.114;9.388;2023-05-20T14:38:30;18.90;99.90
19152;DHT22;9708;53.114;9.388;2023-05-20T14:40:57;18.60;99.90
19152;DHT22;9708;53.114;9.388;2023-05-20T14:43:25;18.30;99.90
19152;DHT22;9708;53.114;9.388;2023-05-20T14:45:52;18.40;99.90
19152;DHT22;9708;53.114;9.388;2023-05-20T14:48:18;18.60;99.90
19152;DHT22;9708;53.114;9.388;2023-05-20T14:50:45;18.70;99.90
19152;DHT22;9708;53.114;9.388;2023-05-20T14:53:12;18.40;99.90
19152;DHT22;9708;53.114;9.388;2023-05-20T14:55:39;18.40;99.90
19152;DHT22;9708;53.114;9.388;2023-05-20T14:58:06;18.20;99.90
19152;DHT22;9708;53.114;9.388;2023-05-20T15:00:34;18.20;99.90
19152;DHT22;9708;53.114;9.388;2023-05-20T15:03:01;18.30;99.90
19152;DHT22;9708;53.114;9.388;2023-05-20T15:05:27;18.40;99.90
19152;DHT22;9708;53.114;9.388;2023-05-20T15:07:54;18.40;99.90
19152;DHT22;9708;53.114;9.388;2023-05-20T15:10:21;18.40;99.90
19152;DHT22;9708;53.114;9.388;2023-05-20T15:12:48;18.20;99.90
19152;DHT22;9708;53.114;9.388;2023-05-20T15:15:15;18.20;99.90
19152;DHT22;9708;53.114;9.388;2023-05-20T15:17:43;17.90;99.90
19152;DHT22;9708;53.114;9.388;2023-05-20T15:20:11;17.80;99.90
19152;DHT22;9708;53.114;9.388;2023-05-20T15:22:38;17.90;99.90
19152;DHT22;9708;53.114;9.388;2023-05-20T15:25:06;18.00;99.90
19152;DHT22;9708;53.114;9.388;2023-05-20T15:27:33;17.80;99.90
19152;DHT22;9708;53.114;9.388;2023-05-20T15:29:59;17.90;99.90
19152;DHT22;9708;53.114;9.388;2023-05-20T15:32:26;18.00;99.90
19152;DHT22;9708;53.114;9.388;2023-05-20T15:34:54;17.80;99.90
19152;DHT22;9708;53.114;9.388;2023-05-20T15:37:21;18.00;99.90
19152;DHT22;9708;53.114;9.388;2023-05-20T15:39:48;18.00;99.90
19152;DHT22;9708;53.114;9.388;2023-05-20T15:42:15;17.90;99.90
19152;DHT22;9708;53.114;9.388;2023-05-20T15:44:44;17.70;99.90
19152;DHT22;9708;53.114;9.388;2023-05-20T15:47:11;17.80;99.90
19152;DHT22;9708;53.114;9.388;2023-05-20T15:49:37;17.90;99.90